createdAt,value
2023-04-26T00:02:18.323Z,10.23
2023-04-26T00:04:46.405Z,11.73
2023-04-26T00:07:13.866Z,6.65
2023-04-26T00:09:42.131Z,8.68
2023-04-26T00:12:08.740Z,5.97
2023-04-26T00:14:35.365Z,7.78
2023-04-26T00:17:04.345Z,7.55
2023-04-26T00:19:30.865Z,7.18
2023-04-26T00:21:57.622Z,7.60
2023-04-26T00:24:24.142Z,8.88
2023-04-26T00:26:53.899Z,13.10
2023-04-26T00:29:20.564Z,11.20
2023-04-26T00:31:47.508Z,14.18
2023-04-26T00:34:14.358Z,11.23
2023-04-26T00:36:40.910Z,8.60
2023-04-26T00:39:08.746Z,8.38
2023-04-26T00:41:35.321Z,10.27
2023-04-26T00:44:02.020Z,7.28
2023-04-26T00:46:29.346Z,9.85
2023-04-26T00:48:56.141Z,10.00
2023-04-26T00:51:22.712Z,11.75
2023-04-26T00:53:49.552Z,10.25
2023-04-26T00:56:16.493Z,7.97
2023-04-26T00:58:43.366Z,6.70
2023-04-26T01:01:10.068Z,7.15
2023-04-26T01:03:37.237Z,12.23
2023-04-26T01:06:04.126Z,7.65
2023-04-26T01:08:30.692Z,10.00
2023-04-26T01:10:58.932Z,10.40
2023-04-26T01:13:26.206Z,13.15
2023-04-26T01:15:54.707Z,9.23
2023-04-26T01:18:21.408Z,9.27
2023-04-26T01:20:48.443Z,9.32
2023-04-26T01:23:14.962Z,15.60
2023-04-26T01:25:41.570Z,12.90
2023-04-26T01:28:09.288Z,12.30
2023-04-26T01:30:36.153Z,8.57
2023-04-26T01:33:03.187Z,10.63
2023-04-26T01:35:29.874Z,12.45
2023-04-26T01:37:56.496Z,15.93
2023-04-26T01:40:23.367Z,12.75
2023-04-26T01:42:49.900Z,9.32
2023-04-26T01:45:17.448Z,10.30
2023-04-26T01:48:02.340Z,13.07
2023-04-26T01:50:32.057Z,14.18
2023-04-26T01:52:58.744Z,14.35
2023-04-26T01:55:25.276Z,11.85
2023-04-26T01:57:51.925Z,13.77
2023-04-26T02:00:18.913Z,13.73
2023-04-26T02:02:48.964Z,14.27
2023-04-26T02:05:15.674Z,11.73
2023-04-26T02:07:42.298Z,13.80
2023-04-26T02:10:09.142Z,16.50
2023-04-26T02:12:35.846Z,15.82
2023-04-26T02:15:02.579Z,12.25
2023-04-26T02:17:29.221Z,16.92
2023-04-26T02:19:56.706Z,17.23
2023-04-26T02:22:25.074Z,15.73
2023-04-26T02:24:52.800Z,14.27
2023-04-26T02:27:20.159Z,13.15
2023-04-26T02:29:46.908Z,20.05
2023-04-26T02:32:14.226Z,14.77
2023-04-26T02:34:41.185Z,14.23
2023-04-26T02:37:08.973Z,19.58
2023-04-26T02:39:36.631Z,18.58
2023-04-26T02:42:08.450Z,15.05
2023-04-26T02:44:35.039Z,14.32
2023-04-26T02:47:02.551Z,19.55
2023-04-26T02:49:30.486Z,25.00
2023-04-26T02:51:57.025Z,14.90
2023-04-26T02:54:24.114Z,21.17
2023-04-26T02:56:51.774Z,13.80
2023-04-26T02:59:18.271Z,14.57
2023-04-26T03:01:45.229Z,14.90
2023-04-26T03:04:11.880Z,18.05
2023-04-26T03:06:39.140Z,16.25
2023-04-26T03:09:05.933Z,13.65
2023-04-26T03:11:32.814Z,12.30
2023-04-26T03:13:59.362Z,16.80
2023-04-26T03:16:27.873Z,12.63
2023-04-26T03:18:54.756Z,12.07
2023-04-26T03:21:21.901Z,12.75
2023-04-26T03:23:48.577Z,15.20
2023-04-26T03:26:15.880Z,12.82
2023-04-26T03:28:42.593Z,13.35
2023-04-26T03:31:09.271Z,13.27
2023-04-26T03:33:35.991Z,11.73
2023-04-26T03:36:02.598Z,13.18
2023-04-26T03:38:29.118Z,13.07
2023-04-26T03:40:55.774Z,13.85
2023-04-26T03:43:23.353Z,14.32
2023-04-26T03:45:50.448Z,12.30
2023-04-26T03:48:17.249Z,13.52
2023-04-26T03:50:45.986Z,11.70
2023-04-26T03:53:13.009Z,10.50
2023-04-26T03:55:39.744Z,16.23
2023-04-26T03:58:08.097Z,20.35
2023-04-26T04:00:37.563Z,18.00
2023-04-26T04:03:05.451Z,16.02
2023-04-26T04:05:32.576Z,17.00
2023-04-26T04:07:59.573Z,16.35
2023-04-26T04:10:26.351Z,14.55
2023-04-26T04:12:54.104Z,16.90
2023-04-26T04:15:21.208Z,18.02
2023-04-26T04:17:48.784Z,18.23
2023-04-26T04:20:15.574Z,12.18
2023-04-26T04:22:42.657Z,15.95
2023-04-26T04:25:13.759Z,13.77
2023-04-26T04:27:42.588Z,14.02
2023-04-26T04:30:09.916Z,21.77
2023-04-26T04:32:36.966Z,19.60
2023-04-26T04:35:03.692Z,21.65
2023-04-26T04:37:33.526Z,23.25
2023-04-26T04:40:00.767Z,16.05
2023-04-26T04:42:28.237Z,19.70
2023-04-26T04:44:57.501Z,19.45
2023-04-26T04:47:25.732Z,20.67
2023-04-26T04:49:53.851Z,19.55
2023-04-26T04:52:23.704Z,18.95
2023-04-26T04:54:50.357Z,18.70
2023-04-26T04:57:17.057Z,21.25
2023-04-26T04:59:45.387Z,21.58
2023-04-26T05:02:12.452Z,22.92
2023-04-26T05:04:39.393Z,23.63
2023-04-26T05:07:06.719Z,22.27
2023-04-26T05:09:34.429Z,28.23
2023-04-26T05:12:01.549Z,23.08
2023-04-26T05:14:29.878Z,20.80
2023-04-26T05:16:56.649Z,21.55
2023-04-26T05:19:23.377Z,19.75
2023-04-26T05:21:50.047Z,24.38
2023-04-26T05:24:16.862Z,26.00
2023-04-26T05:26:43.777Z,21.45
2023-04-26T05:29:29.998Z,27.92
2023-04-26T05:32:22.483Z,25.50
2023-04-26T05:34:57.073Z,22.67
2023-04-26T05:37:23.622Z,26.63
2023-04-26T05:39:51.004Z,24.45
2023-04-26T05:42:18.183Z,28.83
2023-04-26T05:44:45.088Z,23.88
2023-04-26T05:47:12.383Z,26.30
2023-04-26T05:49:38.934Z,24.13
2023-04-26T05:52:05.609Z,24.77
2023-04-26T05:54:32.292Z,25.35
2023-04-26T05:56:59.344Z,22.83
2023-04-26T05:59:28.122Z,28.00
2023-04-26T06:01:54.813Z,24.85
2023-04-26T06:04:21.550Z,28.98
2023-04-26T06:07:00.703Z,24.02
2023-04-26T06:09:27.394Z,24.48
2023-04-26T06:11:53.979Z,27.33
2023-04-26T06:14:29.990Z,26.27
2023-04-26T06:16:59.307Z,22.80
2023-04-26T06:19:27.603Z,24.20
2023-04-26T06:21:55.393Z,26.90
2023-04-26T06:24:24.983Z,19.27
2023-04-26T06:26:52.022Z,25.58
2023-04-26T06:29:18.671Z,22.63
2023-04-26T06:31:46.419Z,22.35
2023-04-26T06:34:14.707Z,23.70
2023-04-26T06:36:41.663Z,19.75
2023-04-26T06:39:08.819Z,19.42
2023-04-26T06:41:35.570Z,18.65
2023-04-26T06:44:02.281Z,16.77
2023-04-26T06:46:31.229Z,14.00
2023-04-26T06:48:57.836Z,22.65
2023-04-26T06:51:25.145Z,23.65
2023-04-26T06:53:52.846Z,15.40
2023-04-26T06:56:19.692Z,14.20
2023-04-26T06:59:04.038Z,17.65
2023-04-26T07:01:33.727Z,14.90
2023-04-26T07:04:03.287Z,12.45
2023-04-26T07:06:34.055Z,11.45
2023-04-26T07:09:02.499Z,13.18
2023-04-26T07:11:29.566Z,10.10
2023-04-26T07:13:56.913Z,13.77
2023-04-26T07:16:23.885Z,11.70
2023-04-26T07:18:51.696Z,11.73
2023-04-26T07:21:18.388Z,9.80
2023-04-26T07:23:45.045Z,12.63
2023-04-26T07:26:11.904Z,14.82
2023-04-26T07:28:38.413Z,13.23
2023-04-26T07:31:07.831Z,12.88
2023-04-26T07:33:35.639Z,10.95
2023-04-26T07:36:02.265Z,8.10
2023-04-26T07:38:28.759Z,13.48
2023-04-26T07:40:55.779Z,15.63
2023-04-26T07:43:23.311Z,11.32
2023-04-26T07:45:49.880Z,10.63
2023-04-26T07:48:17.196Z,7.53
2023-04-26T07:50:43.937Z,10.20
2023-04-26T07:53:10.556Z,10.25
2023-04-26T07:55:37.628Z,7.57
2023-04-26T07:58:04.499Z,7.60
2023-04-26T08:00:33.033Z,8.02
2023-04-26T08:02:59.767Z,9.27
2023-04-26T08:05:27.802Z,8.65
2023-04-26T08:07:54.688Z,7.25
2023-04-26T08:10:21.473Z,11.85
2023-04-26T08:12:48.091Z,6.55
2023-04-26T08:15:14.900Z,6.82
2023-04-26T08:17:41.740Z,9.07
2023-04-26T08:20:09.814Z,10.10
2023-04-26T08:22:36.573Z,8.10
2023-04-26T08:25:04.622Z,11.40
2023-04-26T08:27:31.864Z,9.65
2023-04-26T08:29:58.493Z,6.07
2023-04-26T08:32:25.069Z,10.00
2023-04-26T08:34:51.875Z,8.32
2023-04-26T08:37:18.445Z,8.63
2023-04-26T08:39:45.019Z,5.88
2023-04-26T08:42:16.669Z,6.32
2023-04-26T08:44:44.779Z,3.33
2023-04-26T08:47:45.438Z,6.03
2023-04-26T08:50:15.098Z,7.05
2023-04-26T08:52:42.814Z,6.68
2023-04-26T08:55:10.726Z,5.63
2023-04-26T08:57:38.128Z,8.80
2023-04-26T09:00:06.527Z,5.88
2023-04-26T09:02:34.506Z,8.15
2023-04-26T09:05:01.407Z,8.07
2023-04-26T09:07:33.779Z,6.00
2023-04-26T09:10:00.985Z,6.28
2023-04-26T09:12:27.656Z,3.92
2023-04-26T09:14:54.351Z,6.10
2023-04-26T09:17:32.259Z,8.88
2023-04-26T09:20:00.689Z,7.65
2023-04-26T09:22:37.476Z,6.32
2023-04-26T09:25:07.109Z,6.85
2023-04-26T09:27:39.336Z,4.35
2023-04-26T09:30:20.757Z,5.43
2023-04-26T09:32:58.005Z,4.70
2023-04-26T09:35:41.843Z,8.07
2023-04-26T09:38:12.671Z,8.07
2023-04-26T09:40:50.593Z,3.63
2023-04-26T09:43:19.770Z,4.35
2023-04-26T09:45:55.774Z,2.85
2023-04-26T09:48:34.942Z,2.67
2023-04-26T09:51:04.591Z,8.27
2023-04-26T09:53:39.464Z,7.38
2023-04-26T09:56:13.411Z,3.15
2023-04-26T09:59:00.735Z,3.53
2023-04-26T10:01:29.868Z,3.05
2023-04-26T10:03:57.699Z,4.15
2023-04-26T10:06:25.167Z,3.72
2023-04-26T10:08:52.019Z,5.35
2023-04-26T10:11:18.852Z,7.00
2023-04-26T10:13:45.641Z,5.13
2023-04-26T10:16:12.245Z,5.13
2023-04-26T10:18:39.182Z,6.35
2023-04-26T10:21:12.769Z,6.32
2023-04-26T10:23:40.881Z,7.72
2023-04-26T10:26:07.747Z,5.85
2023-04-26T10:29:02.609Z,7.78
2023-04-26T10:32:10.673Z,8.98
2023-04-26T10:34:37.776Z,3.50
2023-04-26T10:37:14.796Z,5.85
2023-04-26T10:39:43.584Z,7.05
2023-04-26T10:42:27.409Z,7.20
2023-04-26T10:44:56.178Z,4.13
2023-04-26T10:47:35.006Z,4.55
2023-04-26T10:50:12.049Z,6.57
2023-04-26T10:53:05.125Z,6.32
2023-04-26T10:55:38.487Z,4.93
2023-04-26T10:58:46.299Z,6.53
2023-04-26T11:01:21.166Z,6.65
2023-04-26T11:04:14.219Z,3.80
2023-04-26T11:06:49.596Z,4.78
2023-04-26T11:09:41.709Z,4.88
2023-04-26T11:12:13.909Z,5.28
2023-04-26T11:14:45.710Z,4.40
2023-04-26T11:17:13.154Z,5.18
2023-04-26T11:19:41.396Z,6.95
2023-04-26T11:22:08.572Z,5.68
2023-04-26T11:24:36.736Z,2.35
2023-04-26T11:27:11.876Z,4.00
2023-04-26T11:29:39.149Z,5.88
2023-04-26T11:32:06.060Z,5.78
2023-04-26T11:34:38.111Z,3.03
2023-04-26T11:37:06.256Z,3.83
2023-04-26T11:39:36.930Z,2.40
2023-04-26T11:42:07.713Z,5.95
2023-04-26T11:44:34.798Z,5.70
2023-04-26T11:47:04.026Z,6.15
2023-04-26T11:49:32.286Z,4.90
2023-04-26T11:51:59.396Z,4.75
2023-04-26T11:54:37.597Z,4.28
2023-04-26T11:57:17.154Z,5.95
2023-04-26T11:59:44.857Z,3.55
2023-04-26T12:02:12.065Z,5.63
2023-04-26T12:04:42.416Z,5.95
2023-04-26T12:07:09.403Z,6.47
2023-04-26T12:09:41.194Z,6.03
2023-04-26T12:12:08.249Z,7.10
2023-04-26T12:14:39.580Z,2.28
2023-04-26T12:17:06.824Z,3.67
2023-04-26T12:19:37.333Z,7.15
2023-04-26T12:22:05.788Z,4.60
2023-04-26T12:24:34.599Z,3.35
2023-04-26T12:27:02.977Z,6.75
2023-04-26T12:29:31.861Z,7.65
2023-04-26T12:31:59.782Z,8.65
2023-04-26T12:34:26.547Z,5.18
2023-04-26T12:36:53.129Z,10.50
2023-04-26T12:39:19.719Z,13.75
2023-04-26T12:41:46.620Z,12.43
2023-04-26T12:44:14.470Z,4.63
2023-04-26T12:46:41.181Z,10.40
2023-04-26T12:49:07.872Z,5.65
2023-04-26T12:51:34.445Z,5.97
2023-04-26T12:54:01.067Z,7.70
2023-04-26T12:56:29.484Z,4.55
2023-04-26T12:58:56.224Z,5.55
2023-04-26T13:01:22.942Z,4.80
2023-04-26T13:03:49.819Z,5.22
2023-04-26T13:06:16.728Z,6.22
2023-04-26T13:08:43.430Z,9.50
2023-04-26T13:11:10.032Z,6.10
2023-04-26T13:13:43.622Z,5.60
2023-04-26T13:16:12.552Z,7.25
2023-04-26T13:18:39.917Z,5.63
2023-04-26T13:21:06.772Z,5.65
2023-04-26T13:23:33.276Z,5.10
2023-04-26T13:25:59.956Z,4.50
2023-04-26T13:28:26.653Z,4.03
2023-04-26T13:30:55.698Z,5.45
2023-04-26T13:33:22.348Z,4.97
2023-04-26T13:35:48.968Z,4.28
2023-04-26T13:38:16.478Z,4.90
2023-04-26T13:40:43.897Z,4.13
2023-04-26T13:43:10.628Z,10.57
2023-04-26T13:45:37.306Z,6.53
2023-04-26T13:48:04.132Z,6.88
2023-04-26T13:50:31.479Z,5.57
2023-04-26T13:52:58.160Z,6.85
2023-04-26T13:55:25.611Z,7.50
2023-04-26T13:57:52.174Z,7.22
2023-04-26T14:00:19.186Z,6.68
2023-04-26T14:02:47.410Z,6.45
2023-04-26T14:05:14.379Z,7.05
2023-04-26T14:07:44.405Z,5.90
2023-04-26T14:10:12.143Z,5.03
2023-04-26T14:12:39.143Z,6.22
2023-04-26T14:15:06.599Z,5.20
2023-04-26T14:17:33.643Z,7.00
2023-04-26T14:20:00.695Z,4.20
2023-04-26T14:22:27.705Z,4.03
2023-04-26T14:24:54.300Z,8.43
2023-04-26T14:27:21.007Z,5.57
2023-04-26T14:29:47.654Z,4.28
2023-04-26T14:32:14.208Z,6.45
2023-04-26T14:34:40.885Z,6.65
2023-04-26T14:37:07.750Z,5.25
2023-04-26T14:39:34.506Z,4.88
2023-04-26T14:42:01.739Z,6.25
2023-04-26T14:44:28.297Z,20.05
2023-04-26T14:46:54.830Z,16.23
2023-04-26T14:49:21.319Z,8.85
2023-04-26T14:51:47.980Z,17.33
2023-04-26T14:54:15.464Z,19.63
2023-04-26T14:56:42.182Z,5.80
2023-04-26T14:59:08.727Z,80.50
2023-04-26T15:01:35.483Z,38.45
2023-04-26T15:04:02.201Z,15.45
2023-04-26T15:06:30.698Z,40.95
2023-04-26T15:08:57.431Z,5.68
2023-04-26T15:11:24.003Z,5.60
2023-04-26T15:13:50.553Z,3.60
2023-04-26T15:16:17.267Z,3.70
2023-04-26T15:18:44.156Z,5.90
2023-04-26T15:21:18.979Z,10.75
2023-04-26T15:23:45.592Z,6.97
2023-04-26T15:26:12.172Z,6.93
2023-04-26T15:28:38.949Z,5.07
2023-04-26T15:31:08.730Z,6.25
2023-04-26T15:33:35.615Z,7.38
2023-04-26T15:36:02.450Z,6.03
2023-04-26T15:38:29.108Z,6.97
2023-04-26T15:40:55.788Z,6.55
2023-04-26T15:43:22.369Z,5.30
2023-04-26T15:45:49.580Z,4.57
2023-04-26T15:48:16.436Z,5.70
2023-04-26T15:50:43.090Z,4.90
2023-04-26T15:53:09.992Z,3.72
2023-04-26T15:55:36.749Z,5.55
2023-04-26T15:58:03.511Z,10.85
2023-04-26T16:00:31.615Z,5.53
2023-04-26T16:02:58.339Z,7.00
2023-04-26T16:05:25.773Z,3.80
2023-04-26T16:07:52.422Z,4.70
2023-04-26T16:10:19.124Z,7.10
2023-04-26T16:12:45.710Z,4.38
2023-04-26T16:15:12.339Z,3.63
2023-04-26T16:17:39.355Z,4.07
2023-04-26T16:20:07.986Z,5.43
2023-04-26T16:22:35.757Z,5.90
2023-04-26T16:25:04.041Z,3.15
2023-04-26T16:27:30.639Z,7.93
2023-04-26T16:29:57.542Z,5.43
2023-04-26T16:32:26.299Z,6.05
2023-04-26T16:34:53.181Z,4.13
2023-04-26T16:37:19.881Z,4.93
2023-04-26T16:39:46.552Z,6.05
2023-04-26T16:42:13.131Z,5.88
2023-04-26T16:44:40.736Z,6.70
2023-04-26T16:47:07.328Z,5.45
2023-04-26T16:49:34.196Z,8.32
2023-04-26T16:52:01.705Z,6.60
2023-04-26T16:54:28.431Z,6.78
2023-04-26T16:56:55.085Z,7.03
2023-04-26T16:59:21.674Z,8.10
2023-04-26T17:01:48.342Z,6.97
2023-04-26T17:04:15.106Z,4.32
2023-04-26T17:06:41.709Z,4.63
2023-04-26T17:09:08.584Z,10.57
2023-04-26T17:11:37.239Z,16.52
2023-04-26T17:14:04.650Z,8.00
2023-04-26T17:16:31.680Z,7.45
2023-04-26T17:18:58.552Z,6.95
2023-04-26T17:21:26.156Z,7.25
2023-04-26T17:23:52.751Z,7.68
2023-04-26T17:26:19.372Z,7.25
2023-04-26T17:28:46.436Z,7.32
2023-04-26T17:31:13.206Z,6.80
2023-04-26T17:33:39.761Z,8.10
2023-04-26T17:36:06.550Z,5.07
2023-04-26T17:38:33.202Z,7.30
2023-04-26T17:41:00.093Z,24.95
2023-04-26T17:43:26.785Z,7.22
2023-04-26T17:45:53.434Z,3.97
2023-04-26T17:48:20.155Z,5.95
2023-04-26T17:50:46.881Z,7.20
2023-04-26T17:53:13.507Z,6.82
2023-04-26T17:55:40.511Z,6.82
2023-04-26T17:58:07.060Z,5.20
2023-04-26T18:00:33.967Z,3.25
2023-04-26T18:03:03.014Z,5.70
2023-04-26T18:05:29.803Z,3.55
2023-04-26T18:07:56.555Z,3.38
2023-04-26T18:10:23.249Z,6.85
2023-04-26T18:12:49.873Z,5.65
2023-04-26T18:15:16.392Z,6.10
2023-04-26T18:17:43.584Z,7.75
2023-04-26T18:20:12.942Z,5.72
2023-04-26T18:22:39.887Z,10.88
2023-04-26T18:25:06.807Z,4.25
2023-04-26T18:27:34.696Z,5.25
2023-04-26T18:30:01.349Z,6.40
2023-04-26T18:32:27.970Z,5.13
2023-04-26T18:34:54.660Z,4.47
2023-04-26T18:37:21.450Z,7.30
2023-04-26T18:39:48.764Z,9.20
2023-04-26T18:42:15.643Z,7.57
2023-04-26T18:44:42.265Z,6.82
2023-04-26T18:47:08.886Z,4.70
2023-04-26T18:49:42.057Z,6.40
2023-04-26T18:52:11.113Z,6.03
2023-04-26T18:54:38.864Z,3.33
2023-04-26T18:57:05.601Z,4.68
2023-04-26T18:59:32.449Z,12.23
2023-04-26T19:01:59.087Z,5.22
2023-04-26T19:04:26.373Z,6.20
2023-04-26T19:06:53.228Z,5.65
2023-04-26T19:09:21.645Z,4.13
2023-04-26T19:11:48.183Z,6.90
2023-04-26T19:14:14.753Z,8.18
2023-04-26T19:16:41.447Z,5.47
2023-04-26T19:19:08.033Z,7.97
2023-04-26T19:21:35.061Z,4.72
2023-04-26T19:24:01.565Z,6.53
2023-04-26T19:26:28.108Z,5.68
2023-04-26T19:28:55.799Z,6.25
2023-04-26T19:31:22.859Z,6.00
2023-04-26T19:33:49.500Z,5.82
2023-04-26T19:36:16.051Z,5.70
2023-04-26T19:38:42.658Z,7.25
2023-04-26T19:41:09.204Z,6.82
2023-04-26T19:43:35.839Z,4.28
2023-04-26T19:46:10.986Z,7.07
2023-04-26T19:48:37.641Z,3.55
2023-04-26T19:51:04.261Z,7.28
2023-04-26T19:53:30.896Z,7.40
2023-04-26T19:55:57.435Z,7.50
2023-04-26T19:58:24.537Z,6.18
2023-04-26T20:00:51.275Z,7.28
2023-04-26T20:03:18.049Z,7.25
2023-04-26T20:05:44.662Z,6.57
2023-04-26T20:08:11.189Z,7.53
2023-04-26T20:10:37.879Z,5.75
2023-04-26T20:13:04.516Z,7.88
2023-04-26T20:15:33.016Z,5.68
2023-04-26T20:18:02.195Z,7.32
2023-04-26T20:20:29.208Z,5.65
2023-04-26T20:22:55.784Z,11.27
2023-04-26T20:25:22.484Z,10.93
2023-04-26T20:27:49.090Z,8.57
2023-04-26T20:30:15.873Z,9.98
2023-04-26T20:32:42.998Z,9.93
2023-04-26T20:35:10.042Z,9.90
2023-04-26T20:37:36.733Z,9.60
2023-04-26T20:40:03.832Z,8.15
2023-04-26T20:42:30.451Z,8.63
2023-04-26T20:44:57.404Z,7.93
2023-04-26T20:47:24.515Z,6.57
2023-04-26T20:49:51.101Z,6.97
2023-04-26T20:52:17.649Z,8.57
2023-04-26T20:54:44.187Z,10.48
2023-04-26T20:57:10.964Z,6.03
2023-04-26T20:59:37.781Z,6.57
2023-04-26T21:02:05.015Z,7.35
2023-04-26T21:04:31.952Z,6.30
2023-04-26T21:06:58.681Z,7.88
2023-04-26T21:09:25.399Z,7.95
2023-04-26T21:11:51.998Z,9.07
2023-04-26T21:14:18.617Z,7.22
2023-04-26T21:16:45.253Z,5.80
2023-04-26T21:19:11.998Z,5.57
2023-04-26T21:21:38.663Z,9.98
2023-04-26T21:24:05.498Z,4.88
2023-04-26T21:26:32.144Z,4.85
2023-04-26T21:28:58.790Z,9.57
2023-04-26T21:31:25.723Z,8.82
2023-04-26T21:33:52.686Z,7.50
2023-04-26T21:36:19.368Z,6.20
2023-04-26T21:38:45.968Z,9.30
2023-04-26T21:41:12.814Z,6.93
2023-04-26T21:43:39.437Z,5.78
2023-04-26T21:46:07.880Z,8.82
2023-04-26T21:48:34.967Z,8.85
2023-04-26T21:51:01.721Z,5.88
2023-04-26T21:53:28.651Z,6.25
2023-04-26T21:55:55.586Z,5.22
2023-04-26T21:58:23.214Z,6.03
2023-04-26T22:00:50.241Z,5.63
2023-04-26T22:03:17.293Z,8.45
2023-04-26T22:05:44.223Z,6.95
2023-04-26T22:08:10.904Z,7.75
2023-04-26T22:10:37.547Z,7.18
2023-04-26T22:13:05.168Z,10.48
2023-04-26T22:15:32.195Z,8.90
2023-04-26T22:17:59.077Z,7.30
2023-04-26T22:20:26.465Z,8.57
2023-04-26T22:22:53.587Z,5.13
2023-04-26T22:25:20.343Z,7.53
2023-04-26T22:27:47.014Z,6.50
2023-04-26T22:30:24.684Z,6.25
2023-04-26T22:32:54.688Z,5.50
2023-04-26T22:35:23.137Z,5.78
2023-04-26T22:37:49.925Z,8.73
2023-04-26T22:40:17.214Z,6.43
2023-04-26T22:42:43.855Z,5.00
2023-04-26T22:45:11.948Z,8.65
2023-04-26T22:47:39.721Z,8.80
2023-04-26T22:50:07.499Z,4.53
2023-04-26T22:52:35.068Z,4.93
2023-04-26T22:55:01.953Z,7.28
2023-04-26T22:57:29.669Z,3.92
2023-04-26T22:59:56.722Z,6.95
2023-04-26T23:02:23.815Z,9.60
2023-04-26T23:04:50.594Z,6.15
2023-04-26T23:07:17.257Z,7.45
2023-04-26T23:09:43.902Z,7.75
2023-04-26T23:12:10.616Z,9.07
2023-04-26T23:14:38.242Z,9.05
2023-04-26T23:17:05.696Z,8.02
2023-04-26T23:19:33.121Z,6.50
2023-04-26T23:22:00.013Z,5.80
2023-04-26T23:24:27.755Z,6.47
2023-04-26T23:26:54.302Z,8.80
2023-04-26T23:29:20.955Z,6.25
2023-04-26T23:31:47.672Z,9.57
2023-04-26T23:34:14.349Z,10.85
2023-04-26T23:36:42.044Z,7.18
2023-04-26T23:39:08.926Z,7.47
2023-04-26T23:41:35.791Z,13.95
2023-04-26T23:44:02.459Z,7.53
2023-04-26T23:46:29.168Z,12.13
2023-04-26T23:48:55.891Z,6.82
2023-04-26T23:51:23.541Z,7.75
2023-04-26T23:53:50.120Z,8.95
2023-04-26T23:56:16.709Z,8.88
2023-04-26T23:58:43.350Z,8.30
